sensor_id;sensor_type;location;lat;lon;timestamp;P1;durP1;ratioP1;P2;durP2;ratioP2
60502;SDS011;51448;51.660;5.824;2022-11-20T00:01:31;16.15;;;7.88;;
60502;SDS011;51448;51.660;5.824;2022-11-20T00:03:59;22.65;;;19.15;;
60502;SDS011;51448;51.660;5.824;2022-11-20T00:06:27;23.10;;;18.25;;
60502;SDS011;51448;51.660;5.824;2022-11-20T00:08:56;14.57;;;7.63;;
60502;SDS011;51448;51.660;5.824;2022-11-20T00:11:27;12.27;;;6.70;;
60502;SDS011;51448;51.660;5.824;2022-11-20T00:13:56;19.95;;;16.80;;
60502;SDS011;51448;51.660;5.824;2022-11-20T00:16:28;14.35;;;6.85;;
60502;SDS011;51448;51.660;5.824;2022-11-20T00:18:58;14.75;;;7.18;;
60502;SDS011;51448;51.660;5.824;2022-11-20T00:21:26;20.45;;;16.98;;
60502;SDS011;51448;51.660;5.824;2022-11-20T00:23:56;21.70;;;18.13;;
60502;SDS011;51448;51.660;5.824;2022-11-20T00:26:24;20.80;;;17.55;;
60502;SDS011;51448;51.660;5.824;2022-11-20T00:28:55;15.57;;;7.25;;
60502;SDS011;51448;51.660;5.824;2022-11-20T00:31:25;14.85;;;6.50;;
60502;SDS011;51448;51.660;5.824;2022-11-20T00:33:54;20.73;;;17.75;;
60502;SDS011;51448;51.660;5.824;2022-11-20T00:36:23;21.33;;;17.17;;
60502;SDS011;51448;51.660;5.824;2022-11-20T00:38:54;21.50;;;17.58;;
60502;SDS011;51448;51.660;5.824;2022-11-20T00:41:24;13.50;;;7.63;;
60502;SDS011;51448;51.660;5.824;2022-11-20T00:43:56;14.82;;;7.03;;
60502;SDS011;51448;51.660;5.824;2022-11-20T00:46:25;22.05;;;18.52;;
60502;SDS011;51448;51.660;5.824;2022-11-20T00:48:54;21.85;;;17.95;;
60502;SDS011;51448;51.660;5.824;2022-11-20T00:51:22;22.10;;;18.08;;
60502;SDS011;51448;51.660;5.824;2022-11-20T00:53:54;21.73;;;17.83;;
60502;SDS011;51448;51.660;5.824;2022-11-20T00:56:23;15.43;;;7.47;;
60502;SDS011;51448;51.660;5.824;2022-11-20T00:58:50;21.42;;;18.40;;
60502;SDS011;51448;51.660;5.824;2022-11-20T01:01:19;15.52;;;7.65;;
60502;SDS011;51448;51.660;5.824;2022-11-20T01:03:53;20.67;;;18.08;;
60502;SDS011;51448;51.660;5.824;2022-11-20T01:08:55;12.90;;;6.70;;
60502;SDS011;51448;51.660;5.824;2022-11-20T01:11:27;15.05;;;7.28;;
60502;SDS011;51448;51.660;5.824;2022-11-20T01:13:58;20.40;;;17.42;;
60502;SDS011;51448;51.660;5.824;2022-11-20T01:16:30;16.37;;;7.20;;
60502;SDS011;51448;51.660;5.824;2022-11-20T01:19:01;20.98;;;18.08;;
60502;SDS011;51448;51.660;5.824;2022-11-20T01:21:32;15.98;;;8.93;;
60502;SDS011;51448;51.660;5.824;2022-11-20T01:24:06;13.45;;;6.88;;
60502;SDS011;51448;51.660;5.824;2022-11-20T01:26:38;15.70;;;6.18;;
60502;SDS011;51448;51.660;5.824;2022-11-20T01:29:10;22.52;;;20.05;;
60502;SDS011;51448;51.660;5.824;2022-11-20T01:31:52;20.73;;;17.80;;
60502;SDS011;51448;51.660;5.824;2022-11-20T01:34:20;22.67;;;19.13;;
60502;SDS011;51448;51.660;5.824;2022-11-20T01:36:49;18.65;;;12.35;;
60502;SDS011;51448;51.660;5.824;2022-11-20T01:39:20;15.05;;;6.95;;
60502;SDS011;51448;51.660;5.824;2022-11-20T01:41:52;20.45;;;17.02;;
60502;SDS011;51448;51.660;5.824;2022-11-20T01:44:47;16.15;;;10.95;;
60502;SDS011;51448;51.660;5.824;2022-11-20T01:50:03;12.45;;;6.45;;
60502;SDS011;51448;51.660;5.824;2022-11-20T01:52:49;15.43;;;8.32;;
60502;SDS011;51448;51.660;5.824;2022-11-20T01:55:30;23.20;;;18.25;;
60502;SDS011;51448;51.660;5.824;2022-11-20T01:58:03;22.55;;;18.38;;
60502;SDS011;51448;51.660;5.824;2022-11-20T02:00:32;15.13;;;8.65;;
60502;SDS011;51448;51.660;5.824;2022-11-20T02:03:01;15.57;;;7.22;;
60502;SDS011;51448;51.660;5.824;2022-11-20T02:05:36;21.48;;;18.05;;
60502;SDS011;51448;51.660;5.824;2022-11-20T02:08:09;16.08;;;8.77;;
60502;SDS011;51448;51.660;5.824;2022-11-20T02:10:37;13.80;;;8.30;;
60502;SDS011;51448;51.660;5.824;2022-11-20T02:13:05;22.65;;;18.73;;
60502;SDS011;51448;51.660;5.824;2022-11-20T02:15:51;20.75;;;12.05;;
60502;SDS011;51448;51.660;5.824;2022-11-20T02:18:19;22.35;;;18.55;;
60502;SDS011;51448;51.660;5.824;2022-11-20T02:20:56;16.40;;;9.90;;
60502;SDS011;51448;51.660;5.824;2022-11-20T02:23:57;17.25;;;7.70;;
60502;SDS011;51448;51.660;5.824;2022-11-20T02:26:25;17.10;;;12.18;;
60502;SDS011;51448;51.660;5.824;2022-11-20T02:28:58;23.02;;;18.25;;
60502;SDS011;51448;51.660;5.824;2022-11-20T02:31:28;14.03;;;6.27;;
60502;SDS011;51448;51.660;5.824;2022-11-20T02:34:02;22.60;;;18.35;;
60502;SDS011;51448;51.660;5.824;2022-11-20T02:36:29;20.85;;;17.83;;
60502;SDS011;51448;51.660;5.824;2022-11-20T02:39:03;25.50;;;20.77;;
60502;SDS011;51448;51.660;5.824;2022-11-20T02:41:35;17.67;;;8.98;;
60502;SDS011;51448;51.660;5.824;2022-11-20T02:44:04;23.08;;;18.92;;
60502;SDS011;51448;51.660;5.824;2022-11-20T02:46:33;16.65;;;7.43;;
60502;SDS011;51448;51.660;5.824;2022-11-20T02:49:02;18.40;;;6.95;;
60502;SDS011;51448;51.660;5.824;2022-11-20T02:51:31;22.80;;;18.70;;
60502;SDS011;51448;51.660;5.824;2022-11-20T02:53:59;23.90;;;19.58;;
60502;SDS011;51448;51.660;5.824;2022-11-20T02:56:27;19.10;;;11.05;;
60502;SDS011;51448;51.660;5.824;2022-11-20T02:58:54;22.77;;;19.08;;
60502;SDS011;51448;51.660;5.824;2022-11-20T03:01:22;18.05;;;12.70;;
60502;SDS011;51448;51.660;5.824;2022-11-20T03:03:50;15.70;;;7.95;;
60502;SDS011;51448;51.660;5.824;2022-11-20T03:06:17;24.92;;;20.15;;
60502;SDS011;51448;51.660;5.824;2022-11-20T03:08:44;17.00;;;10.30;;
60502;SDS011;51448;51.660;5.824;2022-11-20T03:11:12;19.83;;;8.52;;
60502;SDS011;51448;51.660;5.824;2022-11-20T03:13:39;19.90;;;13.60;;
60502;SDS011;51448;51.660;5.824;2022-11-20T03:16:08;17.88;;;10.20;;
60502;SDS011;51448;51.660;5.824;2022-11-20T03:18:39;27.25;;;23.35;;
60502;SDS011;51448;51.660;5.824;2022-11-20T03:21:09;16.52;;;9.65;;
60502;SDS011;51448;51.660;5.824;2022-11-20T03:23:39;16.63;;;8.90;;
60502;SDS011;51448;51.660;5.824;2022-11-20T03:26:28;25.42;;;21.05;;
60502;SDS011;51448;51.660;5.824;2022-11-20T03:28:56;20.20;;;10.98;;
60502;SDS011;51448;51.660;5.824;2022-11-20T03:31:29;16.90;;;7.68;;
60502;SDS011;51448;51.660;5.824;2022-11-20T03:34:00;20.42;;;10.18;;
60502;SDS011;51448;51.660;5.824;2022-11-20T03:36:30;17.80;;;11.38;;
60502;SDS011;51448;51.660;5.824;2022-11-20T03:38:57;26.35;;;20.75;;
60502;SDS011;51448;51.660;5.824;2022-11-20T03:41:26;25.30;;;21.30;;
60502;SDS011;51448;51.660;5.824;2022-11-20T03:44:01;16.42;;;8.25;;
60502;SDS011;51448;51.660;5.824;2022-11-20T03:46:31;18.08;;;8.63;;
60502;SDS011;51448;51.660;5.824;2022-11-20T03:48:59;15.82;;;7.90;;
60502;SDS011;51448;51.660;5.824;2022-11-20T03:51:27;23.25;;;19.90;;
60502;SDS011;51448;51.660;5.824;2022-11-20T03:54:02;26.13;;;21.27;;
60502;SDS011;51448;51.660;5.824;2022-11-20T03:56:34;19.02;;;11.93;;
60502;SDS011;51448;51.660;5.824;2022-11-20T03:59:04;13.77;;;7.50;;
60502;SDS011;51448;51.660;5.824;2022-11-20T04:01:34;17.58;;;9.02;;
60502;SDS011;51448;51.660;5.824;2022-11-20T04:04:12;25.45;;;20.52;;
60502;SDS011;51448;51.660;5.824;2022-11-20T04:06:40;22.98;;;20.48;;
60502;SDS011;51448;51.660;5.824;2022-11-20T04:09:07;19.73;;;11.10;;
60502;SDS011;51448;51.660;5.824;2022-11-20T04:11:35;14.63;;;8.05;;
60502;SDS011;51448;51.660;5.824;2022-11-20T04:14:07;15.65;;;7.57;;
60502;SDS011;51448;51.660;5.824;2022-11-20T04:16:41;18.25;;;8.50;;
60502;SDS011;51448;51.660;5.824;2022-11-20T04:19:10;19.05;;;10.35;;
60502;SDS011;51448;51.660;5.824;2022-11-20T04:21:41;14.13;;;7.40;;
60502;SDS011;51448;51.660;5.824;2022-11-20T04:24:10;19.63;;;10.13;;
60502;SDS011;51448;51.660;5.824;2022-11-20T04:26:38;28.10;;;20.33;;
60502;SDS011;51448;51.660;5.824;2022-11-20T04:29:06;15.15;;;9.35;;
60502;SDS011;51448;51.660;5.824;2022-11-20T04:31:37;14.25;;;7.78;;
60502;SDS011;51448;51.660;5.824;2022-11-20T04:34:05;18.70;;;7.85;;
60502;SDS011;51448;51.660;5.824;2022-11-20T04:36:34;15.57;;;7.63;;
60502;SDS011;51448;51.660;5.824;2022-11-20T04:39:03;28.20;;;21.55;;
60502;SDS011;51448;51.660;5.824;2022-11-20T04:41:34;13.93;;;7.68;;
60502;SDS011;51448;51.660;5.824;2022-11-20T04:44:04;16.13;;;8.32;;
60502;SDS011;51448;51.660;5.824;2022-11-20T04:46:37;15.60;;;7.78;;
60502;SDS011;51448;51.660;5.824;2022-11-20T04:49:08;19.40;;;12.13;;
60502;SDS011;51448;51.660;5.824;2022-11-20T04:51:40;14.70;;;7.15;;
60502;SDS011;51448;51.660;5.824;2022-11-20T04:54:08;15.02;;;7.88;;
60502;SDS011;51448;51.660;5.824;2022-11-20T04:56:38;24.20;;;19.70;;
60502;SDS011;51448;51.660;5.824;2022-11-20T04:59:05;25.95;;;21.35;;
60502;SDS011;51448;51.660;5.824;2022-11-20T05:01:34;16.25;;;7.35;;
60502;SDS011;51448;51.660;5.824;2022-11-20T05:04:01;16.38;;;9.38;;
60502;SDS011;51448;51.660;5.824;2022-11-20T05:06:29;14.13;;;7.18;;
60502;SDS011;51448;51.660;5.824;2022-11-20T05:08:56;17.80;;;10.02;;
60502;SDS011;51448;51.660;5.824;2022-11-20T05:11:24;23.52;;;8.95;;
60502;SDS011;51448;51.660;5.824;2022-11-20T05:13:52;15.02;;;8.05;;
60502;SDS011;51448;51.660;5.824;2022-11-20T05:16:22;23.42;;;19.20;;
60502;SDS011;51448;51.660;5.824;2022-11-20T05:18:52;17.58;;;9.05;;
60502;SDS011;51448;51.660;5.824;2022-11-20T05:21:21;16.45;;;7.82;;
60502;SDS011;51448;51.660;5.824;2022-11-20T05:23:49;16.17;;;8.18;;
60502;SDS011;51448;51.660;5.824;2022-11-20T05:26:18;18.13;;;11.65;;
60502;SDS011;51448;51.660;5.824;2022-11-20T05:28:48;18.00;;;7.57;;
60502;SDS011;51448;51.660;5.824;2022-11-20T05:31:18;16.55;;;8.32;;
60502;SDS011;51448;51.660;5.824;2022-11-20T05:33:54;23.33;;;19.42;;
60502;SDS011;51448;51.660;5.824;2022-11-20T05:36:24;15.20;;;8.65;;
60502;SDS011;51448;51.660;5.824;2022-11-20T05:38:51;17.15;;;10.85;;
60502;SDS011;51448;51.660;5.824;2022-11-20T05:41:25;15.85;;;7.28;;
60502;SDS011;51448;51.660;5.824;2022-11-20T05:43:53;18.25;;;8.65;;
60502;SDS011;51448;51.660;5.824;2022-11-20T05:46:20;24.60;;;19.80;;
60502;SDS011;51448;51.660;5.824;2022-11-20T05:48:55;16.23;;;8.30;;
60502;SDS011;51448;51.660;5.824;2022-11-20T05:51:24;23.90;;;19.58;;
60502;SDS011;51448;51.660;5.824;2022-11-20T05:53:55;19.60;;;12.80;;
60502;SDS011;51448;51.660;5.824;2022-11-20T05:56:24;19.98;;;8.88;;
60502;SDS011;51448;51.660;5.824;2022-11-20T05:58:51;17.88;;;8.00;;
60502;SDS011;51448;51.660;5.824;2022-11-20T06:01:20;15.63;;;7.47;;
60502;SDS011;51448;51.660;5.824;2022-11-20T06:03:52;24.52;;;19.77;;
60502;SDS011;51448;51.660;5.824;2022-11-20T06:06:21;16.50;;;8.38;;
60502;SDS011;51448;51.660;5.824;2022-11-20T06:08:49;19.00;;;7.85;;
60502;SDS011;51448;51.660;5.824;2022-11-20T06:11:16;15.68;;;7.57;;
60502;SDS011;51448;51.660;5.824;2022-11-20T06:13:44;19.17;;;11.55;;
60502;SDS011;51448;51.660;5.824;2022-11-20T06:16:13;17.95;;;9.13;;
60502;SDS011;51448;51.660;5.824;2022-11-20T06:18:44;18.13;;;8.13;;
60502;SDS011;51448;51.660;5.824;2022-11-20T06:21:16;23.80;;;19.60;;
60502;SDS011;51448;51.660;5.824;2022-11-20T06:23:46;15.80;;;7.70;;
60502;SDS011;51448;51.660;5.824;2022-11-20T06:26:17;14.90;;;7.57;;
60502;SDS011;51448;51.660;5.824;2022-11-20T06:28:50;15.63;;;9.38;;
60502;SDS011;51448;51.660;5.824;2022-11-20T06:31:20;16.40;;;9.45;;
60502;SDS011;51448;51.660;5.824;2022-11-20T06:33:50;14.27;;;7.33;;
60502;SDS011;51448;51.660;5.824;2022-11-20T06:36:19;15.23;;;7.55;;
60502;SDS011;51448;51.660;5.824;2022-11-20T06:38:49;17.15;;;10.52;;
60502;SDS011;51448;51.660;5.824;2022-11-20T06:41:20;13.40;;;7.47;;
60502;SDS011;51448;51.660;5.824;2022-11-20T06:43:49;16.38;;;8.27;;
60502;SDS011;51448;51.660;5.824;2022-11-20T06:46:17;21.38;;;18.67;;
60502;SDS011;51448;51.660;5.824;2022-11-20T06:48:47;16.00;;;8.05;;
60502;SDS011;51448;51.660;5.824;2022-11-20T06:51:15;15.95;;;7.82;;
60502;SDS011;51448;51.660;5.824;2022-11-20T06:53:43;16.17;;;8.15;;
60502;SDS011;51448;51.660;5.824;2022-11-20T06:56:10;15.30;;;7.50;;
60502;SDS011;51448;51.660;5.824;2022-11-20T06:58:38;23.55;;;20.10;;
60502;SDS011;51448;51.660;5.824;2022-11-20T07:01:06;25.08;;;19.30;;
60502;SDS011;51448;51.660;5.824;2022-11-20T07:03:37;15.70;;;8.07;;
60502;SDS011;51448;51.660;5.824;2022-11-20T07:06:07;14.05;;;7.30;;
60502;SDS011;51448;51.660;5.824;2022-11-20T07:08:35;15.13;;;8.38;;
60502;SDS011;51448;51.660;5.824;2022-11-20T07:11:04;17.20;;;8.40;;
60502;SDS011;51448;51.660;5.824;2022-11-20T07:13:33;23.48;;;16.20;;
60502;SDS011;51448;51.660;5.824;2022-11-20T07:16:05;22.50;;;18.83;;
60502;SDS011;51448;51.660;5.824;2022-11-20T07:18:34;16.30;;;8.15;;
60502;SDS011;51448;51.660;5.824;2022-11-20T07:21:03;15.82;;;7.95;;
60502;SDS011;51448;51.660;5.824;2022-11-20T07:23:34;16.93;;;7.57;;
60502;SDS011;51448;51.660;5.824;2022-11-20T07:26:02;17.38;;;10.82;;
60502;SDS011;51448;51.660;5.824;2022-11-20T07:28:35;18.40;;;8.73;;
60502;SDS011;51448;51.660;5.824;2022-11-20T07:31:03;17.10;;;9.95;;
60502;SDS011;51448;51.660;5.824;2022-11-20T07:33:32;24.00;;;20.08;;
60502;SDS011;51448;51.660;5.824;2022-11-20T07:35:59;24.58;;;20.35;;
60502;SDS011;51448;51.660;5.824;2022-11-20T07:38:27;16.13;;;6.90;;
60502;SDS011;51448;51.660;5.824;2022-11-20T07:40:58;15.63;;;7.63;;
60502;SDS011;51448;51.660;5.824;2022-11-20T07:43:28;17.60;;;9.40;;
60502;SDS011;51448;51.660;5.824;2022-11-20T07:45:57;15.68;;;7.45;;
60502;SDS011;51448;51.660;5.824;2022-11-20T07:48:25;15.15;;;7.53;;
60502;SDS011;51448;51.660;5.824;2022-11-20T07:50:55;20.33;;;13.35;;
60502;SDS011;51448;51.660;5.824;2022-11-20T07:53:23;18.35;;;9.75;;
60502;SDS011;51448;51.660;5.824;2022-11-20T07:55:51;24.45;;;20.75;;
60502;SDS011;51448;51.660;5.824;2022-11-20T07:58:20;16.98;;;10.70;;
60502;SDS011;51448;51.660;5.824;2022-11-20T08:00:48;15.23;;;8.43;;
60502;SDS011;51448;51.660;5.824;2022-11-20T08:03:15;21.92;;;13.32;;
60502;SDS011;51448;51.660;5.824;2022-11-20T08:05:50;27.10;;;23.08;;
60502;SDS011;51448;51.660;5.824;2022-11-20T08:08:18;27.67;;;22.08;;
60502;SDS011;51448;51.660;5.824;2022-11-20T08:10:46;19.45;;;11.95;;
60502;SDS011;51448;51.660;5.824;2022-11-20T08:13:13;19.33;;;10.88;;
60502;SDS011;51448;51.660;5.824;2022-11-20T08:15:59;27.50;;;23.15;;
60502;SDS011;51448;51.660;5.824;2022-11-20T08:18:27;23.08;;;15.57;;
60502;SDS011;51448;51.660;5.824;2022-11-20T08:21:02;16.85;;;8.75;;
60502;SDS011;51448;51.660;5.824;2022-11-20T08:23:31;30.65;;;24.92;;
60502;SDS011;51448;51.660;5.824;2022-11-20T08:25:58;32.13;;;25.83;;
60502;SDS011;51448;51.660;5.824;2022-11-20T08:28:26;31.73;;;26.45;;
60502;SDS011;51448;51.660;5.824;2022-11-20T08:30:58;20.42;;;12.85;;
60502;SDS011;51448;51.660;5.824;2022-11-20T08:33:27;29.20;;;24.98;;
60502;SDS011;51448;51.660;5.824;2022-11-20T08:36:02;29.95;;;26.60;;
60502;SDS011;51448;51.660;5.824;2022-11-20T08:38:31;31.33;;;25.23;;
60502;SDS011;51448;51.660;5.824;2022-11-20T08:41:00;32.50;;;26.63;;
60502;SDS011;51448;51.660;5.824;2022-11-20T08:43:48;31.52;;;23.92;;
60502;SDS011;51448;51.660;5.824;2022-11-20T08:46:17;29.63;;;25.05;;
60502;SDS011;51448;51.660;5.824;2022-11-20T08:48:45;33.50;;;27.48;;
60502;SDS011;51448;51.660;5.824;2022-11-20T08:51:12;30.98;;;24.55;;
60502;SDS011;51448;51.660;5.824;2022-11-20T08:53:40;35.58;;;28.10;;
60502;SDS011;51448;51.660;5.824;2022-11-20T08:56:08;32.92;;;28.05;;
60502;SDS011;51448;51.660;5.824;2022-11-20T08:58:37;32.67;;;25.15;;
60502;SDS011;51448;51.660;5.824;2022-11-20T09:01:25;35.15;;;28.85;;
60502;SDS011;51448;51.660;5.824;2022-11-20T09:03:57;32.33;;;27.48;;
60502;SDS011;51448;51.660;5.824;2022-11-20T09:06:26;31.40;;;25.92;;
60502;SDS011;51448;51.660;5.824;2022-11-20T09:08:54;33.95;;;27.30;;
60502;SDS011;51448;51.660;5.824;2022-11-20T09:11:22;31.30;;;26.08;;
60502;SDS011;51448;51.660;5.824;2022-11-20T09:13:49;33.63;;;27.67;;
60502;SDS011;51448;51.660;5.824;2022-11-20T09:16:17;30.33;;;25.98;;
60502;SDS011;51448;51.660;5.824;2022-11-20T09:18:45;34.33;;;28.92;;
60502;SDS011;51448;51.660;5.824;2022-11-20T09:21:12;32.53;;;27.67;;
60502;SDS011;51448;51.660;5.824;2022-11-20T09:23:41;32.65;;;28.05;;
60502;SDS011;51448;51.660;5.824;2022-11-20T09:26:09;32.92;;;27.35;;
60502;SDS011;51448;51.660;5.824;2022-11-20T09:28:40;33.22;;;27.92;;
60502;SDS011;51448;51.660;5.824;2022-11-20T09:31:09;39.35;;;30.05;;
60502;SDS011;51448;51.660;5.824;2022-11-20T09:33:49;38.10;;;30.42;;
60502;SDS011;51448;51.660;5.824;2022-11-20T09:36:17;34.28;;;30.15;;
60502;SDS011;51448;51.660;5.824;2022-11-20T09:38:45;36.67;;;29.85;;
60502;SDS011;51448;51.660;5.824;2022-11-20T09:51:04;38.83;;;31.02;;
60502;SDS011;51448;51.660;5.824;2022-11-20T09:56:33;36.75;;;29.23;;
60502;SDS011;51448;51.660;5.824;2022-11-20T09:59:08;36.92;;;29.92;;
60502;SDS011;51448;51.660;5.824;2022-11-20T10:01:55;36.03;;;29.48;;
60502;SDS011;51448;51.660;5.824;2022-11-20T10:04:25;35.00;;;28.65;;
60502;SDS011;51448;51.660;5.824;2022-11-20T10:06:56;34.70;;;28.55;;
60502;SDS011;51448;51.660;5.824;2022-11-20T10:09:59;35.47;;;28.98;;
60502;SDS011;51448;51.660;5.824;2022-11-20T10:20:54;35.40;;;29.08;;
60502;SDS011;51448;51.660;5.824;2022-11-20T10:30:13;34.40;;;29.92;;
60502;SDS011;51448;51.660;5.824;2022-11-20T10:32:48;36.78;;;28.13;;
60502;SDS011;51448;51.660;5.824;2022-11-20T10:35:27;33.60;;;27.15;;
60502;SDS011;51448;51.660;5.824;2022-11-20T10:38:14;34.75;;;26.60;;
60502;SDS011;51448;51.660;5.824;2022-11-20T10:40:53;37.08;;;29.85;;
60502;SDS011;51448;51.660;5.824;2022-11-20T10:43:46;36.72;;;28.92;;
60502;SDS011;51448;51.660;5.824;2022-11-20T10:46:21;35.38;;;28.65;;
60502;SDS011;51448;51.660;5.824;2022-11-20T10:48:51;33.63;;;27.63;;
60502;SDS011;51448;51.660;5.824;2022-11-20T10:57:17;36.88;;;29.08;;
60502;SDS011;51448;51.660;5.824;2022-11-20T11:00:05;35.40;;;28.23;;
60502;SDS011;51448;51.660;5.824;2022-11-20T11:02:44;34.83;;;29.08;;
60502;SDS011;51448;51.660;5.824;2022-11-20T11:07:51;33.28;;;28.00;;
60502;SDS011;51448;51.660;5.824;2022-11-20T11:10:24;36.63;;;28.48;;
60502;SDS011;51448;51.660;5.824;2022-11-20T11:13:03;36.10;;;28.05;;
60502;SDS011;51448;51.660;5.824;2022-11-20T11:15:36;37.65;;;29.58;;
60502;SDS011;51448;51.660;5.824;2022-11-20T11:18:10;38.67;;;31.83;;
60502;SDS011;51448;51.660;5.824;2022-11-20T11:20:38;40.33;;;31.25;;
60502;SDS011;51448;51.660;5.824;2022-11-20T11:23:10;41.70;;;30.90;;
60502;SDS011;51448;51.660;5.824;2022-11-20T11:25:56;40.33;;;32.58;;
60502;SDS011;51448;51.660;5.824;2022-11-20T11:28:26;39.17;;;32.70;;
60502;SDS011;51448;51.660;5.824;2022-11-20T11:30:56;43.88;;;33.85;;
60502;SDS011;51448;51.660;5.824;2022-11-20T11:33:25;45.25;;;34.88;;
60502;SDS011;51448;51.660;5.824;2022-11-20T11:35:56;43.88;;;33.50;;
60502;SDS011;51448;51.660;5.824;2022-11-20T11:41:10;47.92;;;34.55;;
60502;SDS011;51448;51.660;5.824;2022-11-20T11:43:55;43.13;;;32.00;;
60502;SDS011;51448;51.660;5.824;2022-11-20T11:47:01;43.10;;;31.67;;
60502;SDS011;51448;51.660;5.824;2022-11-20T11:49:33;42.90;;;31.10;;
60502;SDS011;51448;51.660;5.824;2022-11-20T11:52:09;46.55;;;32.55;;
60502;SDS011;51448;51.660;5.824;2022-11-20T11:54:53;43.85;;;32.83;;
60502;SDS011;51448;51.660;5.824;2022-11-20T11:57:43;43.67;;;33.22;;
60502;SDS011;51448;51.660;5.824;2022-11-20T12:00:23;42.90;;;33.90;;
60502;SDS011;51448;51.660;5.824;2022-11-20T12:02:57;51.85;;;38.25;;
60502;SDS011;51448;51.660;5.824;2022-11-20T12:05:59;50.95;;;40.90;;
60502;SDS011;51448;51.660;5.824;2022-11-20T12:08:59;57.85;;;46.35;;
60502;SDS011;51448;51.660;5.824;2022-11-20T12:11:51;45.28;;;33.92;;
60502;SDS011;51448;51.660;5.824;2022-11-20T12:14:41;46.72;;;34.53;;
60502;SDS011;51448;51.660;5.824;2022-11-20T12:17:29;43.67;;;33.40;;
60502;SDS011;51448;51.660;5.824;2022-11-20T12:20:15;50.50;;;35.05;;
60502;SDS011;51448;51.660;5.824;2022-11-20T12:23:10;46.58;;;33.55;;
60502;SDS011;51448;51.660;5.824;2022-11-20T12:26:03;48.50;;;32.97;;
60502;SDS011;51448;51.660;5.824;2022-11-20T12:29:18;52.15;;;34.72;;
60502;SDS011;51448;51.660;5.824;2022-11-20T12:42:00;55.75;;;35.10;;
60502;SDS011;51448;51.660;5.824;2022-11-20T12:48:42;56.95;;;35.70;;
60502;SDS011;51448;51.660;5.824;2022-11-20T12:54:59;59.00;;;36.40;;
60502;SDS011;51448;51.660;5.824;2022-11-20T13:09:11;73.80;;;39.78;;
60502;SDS011;51448;51.660;5.824;2022-11-20T13:13:03;76.63;;;39.83;;
60502;SDS011;51448;51.660;5.824;2022-11-20T13:24:54;84.32;;;49.42;;
60502;SDS011;51448;51.660;5.824;2022-11-20T13:27:57;71.75;;;38.78;;
60502;SDS011;51448;51.660;5.824;2022-11-20T13:30:54;71.68;;;39.70;;
60502;SDS011;51448;51.660;5.824;2022-11-20T13:34:04;66.43;;;36.90;;
60502;SDS011;51448;51.660;5.824;2022-11-20T13:36:58;67.13;;;37.95;;
60502;SDS011;51448;51.660;5.824;2022-11-20T13:46:58;69.13;;;37.97;;
60502;SDS011;51448;51.660;5.824;2022-11-20T13:49:47;79.38;;;41.75;;
60502;SDS011;51448;51.660;5.824;2022-11-20T14:02:10;76.05;;;37.97;;
60502;SDS011;51448;51.660;5.824;2022-11-20T14:04:45;85.78;;;41.97;;
60502;SDS011;51448;51.660;5.824;2022-11-20T14:07:17;76.25;;;38.13;;
60502;SDS011;51448;51.660;5.824;2022-11-20T14:09:52;83.60;;;40.42;;
60502;SDS011;51448;51.660;5.824;2022-11-20T14:12:26;85.40;;;40.40;;
60502;SDS011;51448;51.660;5.824;2022-11-20T14:15:00;74.35;;;38.13;;
60502;SDS011;51448;51.660;5.824;2022-11-20T14:19:58;84.32;;;40.03;;
60502;SDS011;51448;51.660;5.824;2022-11-20T14:22:32;83.38;;;39.75;;
60502;SDS011;51448;51.660;5.824;2022-11-20T14:27:40;76.30;;;37.83;;
60502;SDS011;51448;51.660;5.824;2022-11-20T14:30:14;73.97;;;37.05;;
60502;SDS011;51448;51.660;5.824;2022-11-20T14:32:46;81.15;;;38.97;;
60502;SDS011;51448;51.660;5.824;2022-11-20T14:35:20;74.97;;;38.20;;
60502;SDS011;51448;51.660;5.824;2022-11-20T14:37:56;64.53;;;36.37;;
60502;SDS011;51448;51.660;5.824;2022-11-20T14:40:34;86.07;;;41.58;;
60502;SDS011;51448;51.660;5.824;2022-11-20T14:45:55;81.78;;;41.47;;
60502;SDS011;51448;51.660;5.824;2022-11-20T14:48:31;72.97;;;38.33;;
60502;SDS011;51448;51.660;5.824;2022-11-20T14:51:05;69.05;;;37.50;;
60502;SDS011;51448;51.660;5.824;2022-11-20T14:53:32;69.00;;;36.97;;
60502;SDS011;51448;51.660;5.824;2022-11-20T14:56:00;66.60;;;36.30;;
60502;SDS011;51448;51.660;5.824;2022-11-20T14:58:30;67.45;;;36.42;;
60502;SDS011;51448;51.660;5.824;2022-11-20T15:01:01;65.72;;;36.65;;
60502;SDS011;51448;51.660;5.824;2022-11-20T15:03:36;67.70;;;37.03;;
60502;SDS011;51448;51.660;5.824;2022-11-20T15:06:07;63.92;;;35.90;;
60502;SDS011;51448;51.660;5.824;2022-11-20T15:08:39;68.80;;;36.58;;
60502;SDS011;51448;51.660;5.824;2022-11-20T15:11:19;60.05;;;34.22;;
60502;SDS011;51448;51.660;5.824;2022-11-20T15:13:55;65.18;;;35.75;;
60502;SDS011;51448;51.660;5.824;2022-11-20T15:16:23;63.40;;;36.00;;
60502;SDS011;51448;51.660;5.824;2022-11-20T15:18:53;73.07;;;37.13;;
60502;SDS011;51448;51.660;5.824;2022-11-20T15:21:22;65.65;;;36.72;;
60502;SDS011;51448;51.660;5.824;2022-11-20T15:23:50;64.70;;;36.33;;
60502;SDS011;51448;51.660;5.824;2022-11-20T15:26:23;76.90;;;38.72;;
60502;SDS011;51448;51.660;5.824;2022-11-20T15:28:53;70.78;;;38.05;;
60502;SDS011;51448;51.660;5.824;2022-11-20T15:31:22;69.90;;;39.78;;
60502;SDS011;51448;51.660;5.824;2022-11-20T15:33:50;69.43;;;39.20;;
60502;SDS011;51448;51.660;5.824;2022-11-20T15:36:18;64.80;;;35.33;;
60502;SDS011;51448;51.660;5.824;2022-11-20T15:38:45;68.63;;;37.20;;
60502;SDS011;51448;51.660;5.824;2022-11-20T15:41:13;57.60;;;34.15;;
60502;SDS011;51448;51.660;5.824;2022-11-20T15:43:40;65.13;;;36.03;;
60502;SDS011;51448;51.660;5.824;2022-11-20T15:46:09;61.70;;;34.70;;
60502;SDS011;51448;51.660;5.824;2022-11-20T15:51:24;58.88;;;34.35;;
60502;SDS011;51448;51.660;5.824;2022-11-20T15:53:57;64.40;;;35.08;;
60502;SDS011;51448;51.660;5.824;2022-11-20T15:56:25;61.17;;;33.97;;
60502;SDS011;51448;51.660;5.824;2022-11-20T15:58:53;54.00;;;32.50;;
60502;SDS011;51448;51.660;5.824;2022-11-20T16:01:21;59.72;;;33.22;;
60502;SDS011;51448;51.660;5.824;2022-11-20T16:03:49;63.15;;;34.42;;
60502;SDS011;51448;51.660;5.824;2022-11-20T16:06:16;56.72;;;34.17;;
60502;SDS011;51448;51.660;5.824;2022-11-20T16:08:44;64.60;;;35.45;;
60502;SDS011;51448;51.660;5.824;2022-11-20T16:11:12;60.33;;;34.35;;
60502;SDS011;51448;51.660;5.824;2022-11-20T16:13:42;58.53;;;33.07;;
60502;SDS011;51448;51.660;5.824;2022-11-20T16:16:33;58.90;;;33.00;;
60502;SDS011;51448;51.660;5.824;2022-11-20T16:19:04;60.15;;;34.72;;
60502;SDS011;51448;51.660;5.824;2022-11-20T16:21:32;67.32;;;35.50;;
60502;SDS011;51448;51.660;5.824;2022-11-20T16:24:00;61.13;;;34.53;;
60502;SDS011;51448;51.660;5.824;2022-11-20T16:26:31;64.18;;;33.95;;
60502;SDS011;51448;51.660;5.824;2022-11-20T16:29:00;63.75;;;34.92;;
60502;SDS011;51448;51.660;5.824;2022-11-20T16:31:30;63.10;;;34.58;;
60502;SDS011;51448;51.660;5.824;2022-11-20T16:34:00;58.10;;;34.45;;
60502;SDS011;51448;51.660;5.824;2022-11-20T16:36:42;59.83;;;32.95;;
60502;SDS011;51448;51.660;5.824;2022-11-20T16:39:11;62.67;;;33.35;;
60502;SDS011;51448;51.660;5.824;2022-11-20T16:41:39;68.10;;;34.70;;
60502;SDS011;51448;51.660;5.824;2022-11-20T16:44:07;62.67;;;34.35;;
60502;SDS011;51448;51.660;5.824;2022-11-20T16:46:37;60.80;;;33.90;;
60502;SDS011;51448;51.660;5.824;2022-11-20T16:49:10;64.28;;;36.42;;